Time;durP1;ratioP1;P1;durP2;ratioP2;P2;SDS_P1;SDS_P2;PMS_P1;PMS_P2;Temp;Humidity;BMP_temperature;BMP_pressure;BME280_temperature;BME280_humidity;BME280_pressure;Samples;Min_cycle;Max_cycle;Signal;HPM_P1;HPM_P2
2022/10/23 00:00:47;;;;;;;33.00;19.80;;;;;;;10.78;100.00;100895.94;7390895;19;20941;-48
2022/10/23 00:03:17;;;;;;;38.17;20.13;;;;;;;10.74;100.00;100893.16;7391035;19;20448;-47
2022/10/23 00:05:46;;;;;;;39.53;20.70;;;;;;;10.72;100.00;100887.06;7392723;19;20393;-49
2022/10/23 00:08:16;;;;;;;41.10;20.17;;;;;;;10.74;100.00;100882.84;7387243;19;20399;-45
2022/10/23 00:10:45;;;;;;;37.70;21.10;;;;;;;10.72;100.00;100885.34;7394254;19;20428;-49
2022/10/23 00:13:17;;;;;;;38.83;19.13;;;;;;;10.68;100.00;100883.47;7390256;19;20464;-51
2022/10/23 00:15:47;;;;;;;35.73;20.00;;;;;;;10.65;100.00;100885.91;7391775;19;20417;-49
2022/10/23 00:18:17;;;;;;;38.23;19.03;;;;;;;10.69;100.00;100889.47;7387197;19;20441;-46
2022/10/23 00:20:46;;;;;;;34.33;20.33;;;;;;;10.66;100.00;100891.13;7390831;19;20416;-46
2022/10/23 00:23:16;;;;;;;43.23;19.80;;;;;;;10.62;100.00;100893.50;7389443;19;20444;-46
2022/10/23 00:25:45;;;;;;;45.47;21.17;;;;;;;10.62;100.00;100894.38;7390883;19;20411;-48
2022/10/23 00:28:17;;;;;;;35.00;20.83;;;;;;;10.57;100.00;100890.75;7388120;19;20420;-46
2022/10/23 00:30:47;;;;;;;37.47;20.60;;;;;;;10.55;100.00;100901.81;7389919;19;20443;-46
2022/10/23 00:33:17;;;;;;;41.43;21.80;;;;;;;10.52;100.00;100895.69;7390317;19;20463;-48
2022/10/23 00:35:46;;;;;;;48.13;21.70;;;;;;;10.56;100.00;100891.53;7391535;19;20385;-47
2022/10/23 00:38:16;;;;;;;43.70;21.67;;;;;;;10.57;100.00;100883.00;7388668;19;20409;-47
2022/10/23 00:40:46;;;;;;;45.73;23.00;;;;;;;10.55;100.00;100881.16;7390200;19;20467;-46
2022/10/23 00:43:23;;;;;;;41.33;21.23;;;;;;;10.48;100.00;100869.69;7386218;19;20407;-48
2022/10/23 00:45:53;;;;;;;38.67;21.67;;;;;;;10.42;100.00;100874.53;7391015;19;20439;-47
2022/10/23 00:48:22;;;;;;;60.30;28.63;;;;;;;10.38;100.00;100873.53;7388441;19;20419;-49
2022/10/23 00:50:52;;;;;;;48.03;23.03;;;;;;;10.39;100.00;100868.44;7389821;19;20975;-49
2022/10/23 00:53:24;;;;;;;54.87;23.70;;;;;;;10.42;100.00;100859.97;7387011;19;20518;-49
2022/10/23 00:55:56;;;;;;;52.50;23.30;;;;;;;10.39;100.00;100868.44;7389867;19;20435;-49
2022/10/23 00:58:28;;;;;;;44.60;22.27;;;;;;;10.39;100.00;100855.53;7387707;19;20416;-46
2022/10/23 01:00:58;;;;;;;47.67;24.97;;;;;;;10.41;100.00;100837.53;7389089;19;20450;-48
2022/10/23 01:03:29;;;;;;;54.03;24.33;;;;;;;10.40;100.00;100831.50;7386368;19;20448;-47
2022/10/23 01:06:06;;;;;;;52.93;24.63;;;;;;;10.38;100.00;100822.84;7381614;19;20427;-46
2022/10/23 01:08:39;;;;;;;43.47;22.53;;;;;;;10.40;100.00;100805.72;7391000;19;20462;-45
2022/10/23 01:11:12;;;;;;;59.30;28.10;;;;;;;10.39;100.00;100793.63;7388484;19;20431;-50
2022/10/23 01:13:47;;;;;;;41.20;22.93;;;;;;;10.36;100.00;100783.19;7387138;19;20459;-48
2022/10/23 01:16:20;;;;;;;43.00;22.63;;;;;;;10.34;100.00;100751.28;7390829;19;20403;-47
2022/10/23 01:18:54;;;;;;;39.93;23.40;;;;;;;10.38;100.00;100735.16;7387852;19;20438;-45
2022/10/23 01:21:29;;;;;;;38.53;22.13;;;;;;;10.39;100.00;100718.84;7388854;19;20758;-47
2022/10/23 01:24:09;;;;;;;45.90;24.27;;;;;;;10.37;100.00;100710.13;7389425;19;20427;-46
2022/10/23 01:26:48;;;;;;;48.73;22.77;;;;;;;10.29;100.00;100702.94;7385610;19;20751;-47
2022/10/23 01:29:22;;;;;;;41.03;21.07;;;;;;;10.22;100.00;100692.34;7389853;19;20396;-48
2022/10/23 01:31:57;;;;;;;43.90;21.67;;;;;;;10.25;100.00;100686.41;7385272;19;20434;-46
2022/10/23 01:34:31;;;;;;;45.13;22.20;;;;;;;10.23;100.00;100670.91;7388718;19;20765;-50
2022/10/23 01:37:03;;;;;;;36.90;20.73;;;;;;;10.23;100.00;100663.16;7387918;19;20428;-52
2022/10/23 01:39:37;;;;;;;38.80;21.40;;;;;;;10.19;100.00;100658.69;7398162;19;20387;-48
2022/10/23 01:42:11;;;;;;;44.83;20.70;;;;;;;10.21;100.00;100654.47;7392009;19;20447;-46
2022/10/23 01:44:45;;;;;;;39.43;21.00;;;;;;;10.19;100.00;100647.47;7401399;19;20383;-46
2022/10/23 01:47:18;;;;;;;39.97;20.90;;;;;;;10.18;100.00;100641.47;7395914;19;20427;-46
2022/10/23 01:50:10;;;;;;;44.87;21.60;;;;;;;10.20;100.00;100636.38;7398404;19;20421;-48
2022/10/23 01:52:39;;;;;;;53.13;23.90;;;;;;;10.20;100.00;100631.22;7394933;19;20416;-49
2022/10/23 01:55:10;;;;;;;43.23;21.53;;;;;;;10.16;100.00;100627.63;7396062;19;20384;-46
2022/10/23 01:57:41;;;;;;;38.07;21.70;;;;;;;10.17;100.00;100620.78;7394683;19;20411;-47
2022/10/23 02:00:17;;;;;;;39.30;20.70;;;;;;;10.17;100.00;100603.63;7395877;19;20388;-50
2022/10/23 02:02:49;;;;;;;38.40;20.33;;;;;;;10.17;100.00;100593.31;7395308;19;20403;-48
2022/10/23 02:05:20;;;;;;;43.50;22.30;;;;;;;10.19;100.00;100586.50;7398162;19;20395;-48
2022/10/23 02:07:50;;;;;;;42.77;22.00;;;;;;;10.21;100.00;100581.41;7393856;19;20438;-48
2022/10/23 02:10:19;;;;;;;48.37;21.70;;;;;;;10.20;100.00;100569.34;7396145;19;20389;-45
2022/10/23 02:12:52;;;;;;;46.00;20.90;;;;;;;10.17;100.00;100574.38;7393509;19;20421;-48
2022/10/23 02:15:28;;;;;;;49.13;21.90;;;;;;;10.18;100.00;100581.28;7394728;19;20403;-47
2022/10/23 02:18:06;;;;;;;37.10;20.67;;;;;;;10.13;100.00;100563.94;7393258;19;20402;-46
2022/10/23 02:20:39;;;;;;;49.27;22.10;;;;;;;10.10;100.00;100563.81;7395195;19;20402;-45
2022/10/23 02:23:16;;;;;;;38.90;19.40;;;;;;;10.10;100.00;100562.94;7393573;19;20767;-46
2022/10/23 02:25:50;;;;;;;50.30;22.80;;;;;;;10.11;100.00;100565.56;7395979;19;20385;-46
2022/10/23 02:28:22;;;;;;;41.10;21.60;;;;;;;10.12;100.00;100557.00;7393017;19;20411;-49
2022/10/23 02:30:55;;;;;;;35.57;20.07;;;;;;;10.16;100.00;100557.13;7394808;19;20423;-47
2022/10/23 02:33:26;;;;;;;35.87;20.00;;;;;;;10.15;100.00;100561.41;7395274;19;20478;-46
2022/10/23 02:35:55;;;;;;;43.40;21.97;;;;;;;10.12;100.00;100551.84;7395534;19;20396;-51
2022/10/23 02:38:31;;;;;;;54.20;21.87;;;;;;;10.09;100.00;100553.41;7393015;19;20407;-46
2022/10/23 02:41:10;;;;;;;42.87;22.27;;;;;;;10.08;100.00;100557.72;7393678;19;20423;-49
2022/10/23 02:43:44;;;;;;;38.97;21.50;;;;;;;10.09;100.00;100549.16;7392391;19;20438;-49
2022/10/23 02:46:24;;;;;;;44.33;21.33;;;;;;;10.10;100.00;100556.06;7395497;19;20391;-48
2022/10/23 02:48:59;;;;;;;36.03;20.10;;;;;;;10.06;100.00;100556.75;7394330;19;20429;-47
2022/10/23 02:51:35;;;;;;;42.63;21.00;;;;;;;10.06;100.00;100556.75;7390942;19;20436;-46
2022/10/23 02:54:07;;;;;;;40.90;22.77;;;;;;;10.01;100.00;100558.28;7393506;19;20418;-46
2022/10/23 02:56:41;;;;;;;38.60;20.70;;;;;;;10.03;100.00;100555.75;7392449;19;20426;-47
2022/10/23 02:59:16;;;;;;;38.43;20.53;;;;;;;10.05;100.00;100544.69;7394781;19;20396;-46
2022/10/23 03:01:51;;;;;;;36.07;19.30;;;;;;;10.05;100.00;100549.84;7391205;19;20418;-48
2022/10/23 03:04:23;;;;;;;38.13;20.47;;;;;;;9.98;100.00;100533.25;7395041;19;20387;-48
2022/10/23 03:06:53;;;;;;;38.20;20.27;;;;;;;9.96;100.00;100539.16;7391891;19;20411;-47
2022/10/23 03:09:22;;;;;;;37.00;20.23;;;;;;;9.99;100.00;100534.13;7395084;19;20395;-48
2022/10/23 03:11:52;;;;;;;39.70;19.90;;;;;;;10.07;100.00;100548.22;7388361;19;20419;-49
2022/10/23 03:14:21;;;;;;;45.43;21.53;;;;;;;10.14;100.00;100554.50;7393686;19;20383;-50
2022/10/23 03:16:53;;;;;;;33.90;19.60;;;;;;;10.05;100.00;100534.38;7391557;19;20442;-46
2022/10/23 03:19:23;;;;;;;30.70;18.40;;;;;;;9.99;100.00;100513.50;7394558;19;20415;-47
2022/10/23 03:21:52;;;;;;;43.37;19.20;;;;;;;10.02;100.00;100518.81;7389170;19;20407;-50
2022/10/23 03:24:22;;;;;;;38.40;19.50;;;;;;;9.97;100.00;100513.47;7393970;19;20417;-46
2022/10/23 03:26:53;;;;;;;36.50;18.60;;;;;;;9.93;100.00;100518.41;7391146;19;20407;-46
2022/10/23 03:29:23;;;;;;;40.50;20.53;;;;;;;9.93;100.00;100523.56;7394017;19;20392;-47
2022/10/23 03:31:55;;;;;;;43.47;20.50;;;;;;;10.04;100.00;100531.75;7389715;19;20450;-46
2022/10/23 03:34:25;;;;;;;45.83;20.80;;;;;;;10.00;100.00;100531.63;7393420;19;20384;-50
2022/10/23 03:36:54;;;;;;;34.20;20.00;;;;;;;10.15;100.00;100539.91;7390718;19;20434;-46
2022/10/23 03:39:24;;;;;;;38.70;20.57;;;;;;;9.97;100.00;100543.50;7393555;19;20407;-46
2022/10/23 03:41:53;;;;;;;37.30;19.77;;;;;;;9.78;100.00;100555.63;7389328;19;20396;-46
2022/10/23 03:44:23;;;;;;;36.13;19.83;;;;;;;10.03;100.00;100582.41;7393732;19;20937;-49
2022/10/23 03:46:55;;;;;;;31.07;18.37;;;;;;;9.90;100.00;100598.19;7392935;19;20947;-49
2022/10/23 03:49:25;;;;;;;35.40;21.30;;;;;;;9.81;100.00;100604.72;7393849;19;21016;-46
2022/10/23 03:51:54;;;;;;;34.90;21.27;;;;;;;9.84;100.00;100632.28;7390802;19;20403;-48
2022/10/23 03:54:24;;;;;;;36.03;19.43;;;;;;;9.74;100.00;100667.09;7392447;19;20412;-46
2022/10/23 03:56:55;;;;;;;35.50;19.10;;;;;;;9.93;100.00;100707.44;7389311;19;20904;-47
2022/10/23 03:59:26;;;;;;;87.67;19.50;;;;;;;9.84;100.00;100750.81;7396267;19;20400;-51
2022/10/23 04:01:58;;;;;;;59.10;19.83;;;;;;;9.95;100.00;100810.63;7389327;19;20449;-46
2022/10/23 04:04:28;;;;;;;47.73;19.10;;;;;;;10.04;100.00;100875.47;7393405;19;21010;-48
2022/10/23 04:06:57;;;;;;;40.93;16.93;;;;;;;10.17;100.00;100901.78;7389268;19;20412;-46
2022/10/23 04:09:27;;;;;;;61.27;19.87;;;;;;;10.22;100.00;100928.69;7392447;19;20380;-47
2022/10/23 04:11:57;;;;;;;99.60;20.13;;;;;;;9.88;100.00;100943.44;7387464;19;20419;-47
2022/10/23 04:14:27;;;;;;;40.20;18.20;;;;;;;10.00;100.00;100956.03;7392139;19;20384;-48
2022/10/23 04:16:59;;;;;;;35.87;19.20;;;;;;;10.00;100.00;100967.22;7389922;19;20407;-46
2022/10/23 04:19:29;;;;;;;32.07;18.63;;;;;;;9.97;100.00;100979.09;7392867;19;20391;-44
2022/10/23 04:21:59;;;;;;;36.80;17.93;;;;;;;9.79;100.00;100984.25;7388665;19;20431;-47
2022/10/23 04:24:29;;;;;;;29.77;17.17;;;;;;;9.90;100.00;100995.06;7394078;19;20418;-47
2022/10/23 04:26:59;;;;;;;33.73;17.67;;;;;;;9.83;100.00;100994.78;7389110;19;20536;-50
2022/10/23 04:29:31;;;;;;;29.40;18.20;;;;;;;9.62;100.00;101009.16;7392427;19;20414;-49
2022/10/23 04:32:03;;;;;;;30.33;17.50;;;;;;;9.70;100.00;101021.63;7387343;19;20429;-48
2022/10/23 04:34:32;;;;;;;26.73;17.00;;;;;;;9.66;100.00;101018.81;7391357;19;20397;-48
2022/10/23 04:37:02;;;;;;;32.23;17.43;;;;;;;9.63;100.00;101034.16;7388820;19;20815;-47
2022/10/23 04:39:31;;;;;;;28.57;17.00;;;;;;;9.70;100.00;101043.94;7390878;19;20400;-47
2022/10/23 04:42:01;;;;;;;29.40;17.70;;;;;;;9.56;100.00;101040.66;7387769;19;20407;-46
2022/10/23 04:44:30;;;;;;;34.87;16.53;;;;;;;9.53;100.00;101048.25;7391679;19;20484;-47
2022/10/23 04:47:03;;;;;;;29.00;16.37;;;;;;;9.52;100.00;101051.63;7389476;19;21878;-48
2022/10/23 04:49:32;;;;;;;32.63;18.00;;;;;;;9.35;100.00;101058.50;7391641;19;20411;-48
2022/10/23 04:52:01;;;;;;;47.20;20.03;;;;;;;9.50;100.00;101071.28;7386064;19;20395;-47
2022/10/23 04:54:36;;;;;;;76.93;38.93;;;;;;;9.59;100.00;101074.34;7390558;19;20416;-47
2022/10/23 04:57:07;;;;;;;40.87;20.63;;;;;;;9.51;100.00;101073.94;7386599;19;20984;-48
2022/10/23 04:59:37;;;;;;;38.27;18.67;;;;;;;9.55;100.00;101072.41;7391628;19;20419;-46
2022/10/23 05:02:09;;;;;;;34.90;17.20;;;;;;;9.35;100.00;101073.94;7386686;19;20403;-45
2022/10/23 05:04:39;;;;;;;42.83;18.00;;;;;;;9.61;100.00;101076.97;7391716;19;20407;-46
2022/10/23 05:07:08;;;;;;;58.73;20.73;;;;;;;9.59;100.00;101070.03;7387555;19;20416;-49
2022/10/23 05:09:38;;;;;;;27.93;16.50;;;;;;;9.29;100.00;101067.66;7390914;19;20467;-49
2022/10/23 05:12:08;;;;;;;36.67;15.73;;;;;;;9.47;100.00;101074.56;7387303;19;20422;-44
2022/10/23 05:14:37;;;;;;;37.50;15.50;;;;;;;9.39;100.00;101071.59;7398578;19;20392;-45
2022/10/23 05:17:11;;;;;;;29.67;14.70;;;;;;;9.47;100.00;101064.28;7395662;19;20430;-46
2022/10/23 05:19:44;;;;;;;28.07;14.90;;;;;;;9.37;100.00;101069.75;7398213;19;20765;-50
2022/10/23 05:22:15;;;;;;;34.57;15.20;;;;;;;9.29;100.00;101064.22;7393958;19;20778;-46
2022/10/23 05:24:45;;;;;;;38.73;15.73;;;;;;;9.40;100.00;101057.03;7398193;19;21283;-46
2022/10/23 05:27:19;;;;;;;29.10;14.47;;;;;;;9.40;100.00;101062.19;7394043;19;20430;-49
2022/10/23 05:29:48;;;;;;;19.63;12.90;;;;;;;9.32;100.00;101065.25;7397570;19;20391;-46
2022/10/23 05:32:20;;;;;;;23.13;12.20;;;;;;;9.25;100.00;101058.03;7391708;19;20450;-45
2022/10/23 05:34:50;;;;;;;23.17;13.67;;;;;;;9.20;100.00;101059.47;7397460;19;20389;-46
2022/10/23 05:37:19;;;;;;;23.57;13.93;;;;;;;9.22;100.00;101055.28;7395074;19;20436;-48
2022/10/23 05:39:49;;;;;;;22.60;14.00;;;;;;;9.03;100.00;101059.47;7397441;19;20399;-48
2022/10/23 05:42:18;;;;;;;25.27;14.27;;;;;;;9.20;100.00;101059.47;7392567;19;20402;-46
2022/10/23 05:44:48;;;;;;;20.33;12.43;;;;;;;9.17;100.00;101059.28;7397651;19;20380;-46
2022/10/23 05:47:20;;;;;;;22.83;14.30;;;;;;;9.14;100.00;101059.16;7394203;19;20430;-45
2022/10/23 05:49:49;;;;;;;20.80;13.10;;;;;;;9.09;100.00;101055.44;7400367;19;20914;-45
2022/10/23 05:52:19;;;;;;;22.60;13.27;;;;;;;9.23;100.00;101049.31;7391705;19;20430;-45
2022/10/23 05:54:48;;;;;;;23.57;14.20;;;;;;;9.19;100.00;101048.28;7396715;19;20396;-46
2022/10/23 05:57:18;;;;;;;23.37;14.20;;;;;;;9.20;100.00;101049.19;7395314;19;20955;-48
2022/10/23 05:59:47;;;;;;;25.17;14.70;;;;;;;9.06;100.00;101061.31;7397142;19;20403;-48
2022/10/23 06:02:19;;;;;;;27.07;15.77;;;;;;;9.18;100.00;101063.66;7390786;19;20434;-46
2022/10/23 06:04:49;;;;;;;21.37;14.00;;;;;;;8.98;100.00;101060.03;7396379;19;20940;-46
2022/10/23 06:07:18;;;;;;;20.60;12.43;;;;;;;8.85;100.00;101066.19;7392974;19;20434;-51
2022/10/23 06:09:48;;;;;;;21.57;13.80;;;;;;;8.72;100.00;101075.81;7397511;19;20396;-50
2022/10/23 06:12:18;;;;;;;21.73;13.27;;;;;;;8.71;100.00;101068.03;7392404;19;20438;-45
2022/10/23 06:14:47;;;;;;;26.40;13.23;;;;;;;8.71;100.00;101068.03;7396593;19;20403;-46
2022/10/23 06:17:19;;;;;;;23.77;12.93;;;;;;;8.68;100.00;101058.47;7393029;19;20964;-49
2022/10/23 06:19:49;;;;;;;24.77;15.43;;;;;;;9.04;100.00;101066.38;7396482;19;20766;-46
2022/10/23 06:22:19;;;;;;;200.23;107.47;;;;;;;9.99;100.00;101068.59;7391851;19;20403;-49
2022/10/23 06:25:10;;;;;;;36.97;23.93;;;;;;;9.90;100.00;101062.09;7393524;19;20387;-47
2022/10/23 06:27:40;;;;;;;94.53;53.23;;;;;;;10.19;100.00;101047.13;7392496;19;20557;-46
2022/10/23 06:30:10;;;;;;;51.77;28.93;;;;;;;10.11;100.00;101047.66;7395814;19;20387;-49
2022/10/23 06:32:43;;;;;;;36.20;21.70;;;;;;;10.12;100.00;101044.25;7392091;19;20419;-47
2022/10/23 06:35:13;;;;;;;50.87;28.77;;;;;;;10.34;100.00;101052.16;7396005;19;20407;-47
2022/10/23 06:37:42;;;;;;;41.93;24.50;;;;;;;10.45;100.00;101060.44;7391675;19;20412;-50
2022/10/23 06:40:12;;;;;;;28.97;17.27;;;;;;;10.54;100.00;101066.03;7395397;19;20427;-46
2022/10/23 06:42:42;;;;;;;20.57;13.53;;;;;;;10.32;100.00;101074.41;7388236;19;20484;-48
2022/10/23 06:45:12;;;;;;;25.43;12.93;;;;;;;10.18;100.00;101084.94;7395879;19;20388;-48
2022/10/23 06:47:44;;;;;;;22.07;12.67;;;;;;;10.06;100.00;101098.09;7391582;19;20443;-46
2022/10/23 06:50:14;;;;;;;23.63;13.60;;;;;;;10.31;100.00;101116.50;7394937;19;20383;-44
2022/10/23 06:52:45;;;;;;;24.03;12.77;;;;;;;10.33;100.00;101123.50;7391328;19;20440;-47
2022/10/23 06:55:16;;;;;;;19.33;11.70;;;;;;;10.37;100.00;101127.97;7393952;19;20393;-48
2022/10/23 06:57:46;;;;;;;21.00;12.10;;;;;;;10.45;100.00;101137.84;7391721;19;20434;-45
2022/10/23 07:00:16;;;;;;;34.00;21.37;;;;;;;10.50;100.00;101147.56;7395042;19;20457;-46
2022/10/23 07:02:48;;;;;;;41.00;25.87;;;;;;;10.28;100.00;101148.16;7391345;19;20397;-49
2022/10/23 07:05:17;;;;;;;75.97;44.53;;;;;;;10.28;100.00;101145.59;7395279;19;20428;-46
2022/10/23 07:07:47;;;;;;;90.70;53.17;;;;;;;10.25;100.00;101154.06;7391145;19;20403;-45
2022/10/23 07:10:17;;;;;;;47.47;28.20;;;;;;;10.42;100.00;101148.84;7393870;19;20388;-46
2022/10/23 07:12:47;;;;;;;39.77;25.90;;;;;;;10.59;100.00;101156.53;7391655;19;20956;-48
2022/10/23 07:15:18;;;;;;;35.80;22.13;;;;;;;10.59;100.00;101152.28;7395065;19;20427;-50
2022/10/23 07:17:50;;;;;;;34.27;20.43;;;;;;;10.59;100.00;101157.44;7390432;19;20442;-47
2022/10/23 07:20:20;;;;;;;35.43;18.50;;;;;;;10.42;100.00;101160.84;7393719;19;20396;-47
2022/10/23 07:22:53;;;;;;;26.77;15.87;;;;;;;10.59;100.00;101157.44;7390811;19;20423;-45
2022/10/23 07:25:23;;;;;;;23.77;12.33;;;;;;;10.50;100.00;101163.03;7394059;19;20423;-47
2022/10/23 07:27:54;;;;;;;25.53;13.77;;;;;;;10.82;100.00;101167.94;7390980;19;20403;-46
2022/10/23 07:30:23;;;;;;;17.90;9.97;;;;;;;10.46;100.00;101171.44;7393033;19;20423;-45
2022/10/23 07:32:56;;;;;;;18.17;10.40;;;;;;;10.17;100.00;101170.84;7390616;19;20427;-49
2022/10/23 07:35:25;;;;;;;19.87;9.97;;;;;;;10.04;100.00;101171.91;7391994;19;20412;-49
2022/10/23 07:37:55;;;;;;;19.60;10.50;;;;;;;9.94;100.00;101169.69;7390850;19;20465;-50
2022/10/23 07:40:24;;;;;;;18.23;10.47;;;;;;;9.88;100.00;101164.22;7392850;19;20392;-46
2022/10/23 07:42:54;;;;;;;17.03;11.10;;;;;;;9.90;100.00;101153.16;7393608;19;20444;-48
2022/10/23 07:45:23;;;;;;;21.23;11.10;;;;;;;9.88;100.00;101151.34;7393372;19;20430;-50
2022/10/23 07:47:55;;;;;;;17.90;11.50;;;;;;;9.89;100.00;101143.66;7388751;19;20981;-51
2022/10/23 07:50:25;;;;;;;13.53;10.13;;;;;;;9.91;100.00;101133.44;7394030;19;20427;-49
2022/10/23 07:52:56;;;;;;;17.43;11.30;;;;;;;9.90;100.00;101117.09;7389927;19;20773;-47
2022/10/23 07:55:25;;;;;;;24.83;9.87;;;;;;;10.10;100.00;101105.19;7391959;19;20415;-47
2022/10/23 07:57:54;;;;;;;18.40;11.03;;;;;;;10.15;100.00;101096.81;7390077;19;20756;-46
2022/10/23 08:00:25;;;;;;;19.17;11.23;;;;;;;10.15;100.00;101087.34;7392152;19;20397;-48
2022/10/23 08:02:57;;;;;;;16.43;10.00;;;;;;;10.16;100.00;101072.78;7390198;19;20412;-46
2022/10/23 08:05:27;;;;;;;18.83;10.63;;;;;;;10.34;100.00;101052.16;7392928;19;20384;-48
2022/10/23 08:07:56;;;;;;;16.67;11.30;;;;;;;10.51;100.00;101037.53;7387918;19;20411;-45
2022/10/23 08:10:26;;;;;;;20.87;11.03;;;;;;;10.50;100.00;101015.09;7396013;19;20380;-47
2022/10/23 08:12:55;;;;;;;19.10;10.37;;;;;;;10.66;100.00;101002.09;7390229;19;20425;-48
2022/10/23 08:15:25;;;;;;;25.83;11.30;;;;;;;10.74;100.00;100997.28;7392603;19;20384;-46
2022/10/23 08:17:57;;;;;;;19.00;11.33;;;;;;;10.70;100.00;100977.31;7388587;19;20436;-46
2022/10/23 08:20:26;;;;;;;15.33;10.13;;;;;;;10.71;100.00;100975.63;7391258;19;20393;-47
2022/10/23 08:22:56;;;;;;;16.83;10.13;;;;;;;10.78;100.00;100975.94;7389068;19;20403;-51
2022/10/23 08:25:25;;;;;;;19.97;9.87;;;;;;;10.92;100.00;100966.22;7392971;19;20358;-47
2022/10/23 08:27:55;;;;;;;16.33;9.83;;;;;;;11.12;100.00;100968.78;7389998;19;20423;-46
2022/10/23 08:30:24;;;;;;;18.00;10.20;;;;;;;11.17;100.00;100959.53;7391830;19;20424;-47
2022/10/23 08:32:56;;;;;;;24.13;10.30;;;;;;;11.23;100.00;100960.63;7390821;19;20458;-46
2022/10/23 08:35:26;;;;;;;18.43;9.90;;;;;;;11.17;100.00;100950.91;7392070;19;20754;-49
2022/10/23 08:37:55;;;;;;;20.47;9.30;;;;;;;11.20;100.00;100945.88;7388211;19;20460;-48
2022/10/23 08:40:26;;;;;;;20.93;9.30;;;;;;;11.32;100.00;100945.50;7391044;19;20401;-49
2022/10/23 08:43:01;;;;;;;18.20;9.30;;;;;;;11.38;100.00;100957.81;7389067;19;20404;-48
2022/10/23 08:45:32;;;;;;;18.17;9.27;;;;;;;11.43;100.00;100951.13;7391847;19;20378;-47
2022/10/23 08:48:11;;;;;;;17.27;9.60;;;;;;;11.52;100.00;100950.59;7387554;19;20420;-46
2022/10/23 08:50:43;;;;;;;15.40;8.83;;;;;;;11.59;100.00;100944.88;7390755;19;20445;-46
2022/10/23 08:53:17;;;;;;;18.20;8.90;;;;;;;11.77;100.00;100959.34;7387759;19;20415;-47
2022/10/23 08:55:48;;;;;;;19.30;8.07;;;;;;;11.97;100.00;100958.47;7390205;19;20421;-50
2022/10/23 08:58:22;;;;;;;13.13;8.63;;;;;;;12.14;100.00;100958.25;7390654;19;21073;-51
2022/10/23 09:00:52;;;;;;;10.47;8.10;;;;;;;12.16;100.00;100954.03;7389834;19;21082;-50
2022/10/23 09:03:24;;;;;;;16.20;8.50;;;;;;;12.19;100.00;100956.72;7389622;19;20453;-48
2022/10/23 09:06:07;;;;;;;17.80;8.90;;;;;;;12.19;100.00;100956.72;7390458;19;20425;-53
2022/10/23 09:08:47;;;;;;;17.23;8.50;;;;;;;12.22;100.00;100963.72;7387979;19;20450;-53
2022/10/23 09:11:23;;;;;;;16.40;9.37;;;;;;;12.26;100.00;100976.81;7390463;19;20427;-51
2022/10/23 09:14:06;;;;;;;20.80;9.67;;;;;;;12.27;100.00;100973.41;7390047;19;20434;-54
2022/10/23 09:16:48;;;;;;;13.00;8.80;;;;;;;12.37;100.00;100971.19;7387961;19;20761;-47
2022/10/23 09:19:23;;;;;;;15.93;9.90;;;;;;;12.43;100.00;100971.41;7390004;19;20792;-48
2022/10/23 09:21:53;;;;;;;16.30;9.17;;;;;;;12.48;100.00;100977.66;7385762;19;21108;-48
2022/10/23 09:24:23;;;;;;;12.87;7.50;;;;;;;12.57;100.00;100971.94;7390074;19;20414;-47
2022/10/23 09:26:55;;;;;;;20.60;9.00;;;;;;;12.61;100.00;100976.38;7384735;19;20981;-49
2022/10/23 09:29:27;;;;;;;44.97;26.33;;;;;;;12.73;100.00;100977.66;7392752;19;20921;-52
2022/10/23 09:31:58;;;;;;;67.80;34.07;;;;;;;12.85;100.00;100980.69;7383649;19;20434;-47
2022/10/23 09:34:32;;;;;;;51.33;29.17;;;;;;;12.90;100.00;100980.84;7389769;19;20399;-50
2022/10/23 09:37:03;;;;;;;22.90;13.83;;;;;;;13.02;100.00;100986.47;7385275;19;20414;-50
2022/10/23 09:39:34;;;;;;;22.83;13.10;;;;;;;13.05;100.00;100994.38;7390472;19;20426;-48
2022/10/23 09:42:23;;;;;;;15.60;8.83;;;;;;;13.16;100.00;101002.50;7384975;19;20412;-47
2022/10/23 09:44:55;;;;;;;13.27;5.93;;;;;;;13.25;100.00;101014.91;7389284;19;21056;-48
2022/10/23 09:47:27;;;;;;;13.60;8.00;;;;;;;13.28;100.00;101020.19;7383903;19;20420;-50
2022/10/23 09:49:59;;;;;;;11.93;4.90;;;;;;;13.35;100.00;101026.47;7389175;19;20397;-49
2022/10/23 09:52:33;;;;;;;8.70;4.93;;;;;;;13.35;100.00;101040.28;7385251;19;20969;-51
2022/10/23 09:55:05;;;;;;;18.57;9.20;;;;;;;13.41;100.00;101042.25;7387807;19;20419;-49
2022/10/23 09:57:37;;;;;;;13.00;7.90;;;;;;;13.39;100.00;101050.78;7387591;19;20423;-47
2022/10/23 10:00:16;;;;;;;20.53;8.83;;;;;;;13.40;100.00;101061.22;7395899;19;20386;-47
2022/10/23 10:03:00;;;;;;;12.40;6.30;;;;;;;13.36;100.00;101065.41;7392993;19;20415;-46
2022/10/23 10:05:33;;;;;;;37.03;18.50;;;;;;;13.56;100.00;101060.06;7396925;19;20914;-51
2022/10/23 10:08:08;;;;;;;17.13;5.73;;;;;;;13.53;100.00;101059.06;7396165;19;20990;-52
2022/10/23 10:10:40;;;;;;;16.63;8.07;;;;;;;13.62;100.00;101068.06;7395508;19;20384;-48
2022/10/23 10:13:20;;;;;;;25.80;11.67;;;;;;;13.85;100.00;101065.34;7389567;19;20417;-48
2022/10/23 10:15:53;;;;;;;34.37;18.63;;;;;;;14.17;100.00;101060.31;7396637;19;20458;-46
2022/10/23 10:18:30;;;;;;;27.37;17.17;;;;;;;14.26;100.00;101061.44;7388649;19;20433;-52
2022/10/23 10:21:10;;;;;;;27.13;13.17;;;;;;;14.12;100.00;101058.41;7395163;19;20419;-47
2022/10/23 10:23:49;;;;;;;10.97;5.47;;;;;;;14.15;100.00;101067.16;7393466;19;20968;-48
2022/10/23 10:26:28;;;;;;;7.87;3.90;;;;;;;14.14;100.00;101065.41;7395785;19;20387;-50
2022/10/23 10:29:29;;;;;;;9.60;4.33;;;;;;;14.28;100.00;101060.66;7394749;19;20445;-49
2022/10/23 10:32:08;;;;;;;10.30;3.97;;;;;;;14.37;100.00;101054.88;7390809;19;20426;-51
2022/10/23 10:34:43;;;;;;;10.63;3.77;;;;;;;14.32;100.00;101054.72;7396976;19;20399;-50
2022/10/23 10:37:23;;;;;;;8.73;4.60;;;;;;;14.38;100.00;101053.16;7391818;19;22059;-48
2022/10/23 10:39:57;;;;;;;10.30;4.33;;;;;;;14.34;100.00;101054.78;7392689;19;20415;-47
2022/10/23 10:42:36;;;;;;;13.67;5.40;;;;;;;14.41;100.00;101035.97;7390201;19;20407;-49
2022/10/23 10:45:19;;;;;;;10.30;4.10;;;;;;;14.35;100.00;101030.56;7394884;19;20384;-47
2022/10/23 10:47:59;;;;;;;12.60;5.80;;;;;;;14.28;100.00;101024.34;7391369;19;20403;-52
2022/10/23 10:50:32;;;;;;;8.40;3.07;;;;;;;14.26;100.00;101027.72;7394687;19;20410;-49
2022/10/23 10:53:10;;;;;;;13.03;3.77;;;;;;;14.39;100.00;101014.28;7391593;19;20400;-50
2022/10/23 10:55:42;;;;;;;10.77;3.83;;;;;;;14.51;100.00;101018.06;7393490;19;20763;-47
2022/10/23 10:58:16;;;;;;;9.37;3.17;;;;;;;14.56;100.00;101016.50;7391812;19;20440;-48
2022/10/23 11:00:46;;;;;;;13.00;4.20;;;;;;;14.56;100.00;101017.38;7393417;19;20439;-46
2022/10/23 11:03:26;;;;;;;7.23;3.90;;;;;;;14.58;100.00;101012.22;7393905;19;20442;-51
2022/10/23 11:05:56;;;;;;;20.37;4.60;;;;;;;14.63;100.00;101014.94;7394673;19;20384;-51
2022/10/23 11:08:48;;;;;;;10.17;3.77;;;;;;;14.74;100.00;101013.59;7391199;19;20429;-46
2022/10/23 11:11:30;;;;;;;11.30;4.90;;;;;;;14.79;100.00;101011.09;7392370;19;20428;-47
2022/10/23 11:14:00;;;;;;;9.47;5.40;;;;;;;14.85;100.00;101003.50;7393429;19;20471;-48
2022/10/23 11:16:31;;;;;;;11.33;5.17;;;;;;;14.82;100.00;101004.28;7394002;19;20753;-50
2022/10/23 11:19:06;;;;;;;15.73;7.10;;;;;;;14.79;100.00;101003.31;7389910;19;20439;-48
2022/10/23 11:21:44;;;;;;;10.03;5.00;;;;;;;14.76;100.00;101005.84;7392004;19;20535;-47
2022/10/23 11:24:44;;;;;;;11.83;4.63;;;;;;;14.93;100.00;100999.38;7392791;19;20431;-50
2022/10/23 11:27:29;;;;;;;11.67;4.00;;;;;;;15.06;100.00;100994.53;7390065;19;20424;-49